createdAt,value
2017-11-19T00:02:24.302Z,12.10
2017-11-19T00:04:51.062Z,11.93
2017-11-19T00:07:17.907Z,9.90
2017-11-19T00:09:45.731Z,11.80
2017-11-19T00:12:12.329Z,12.87
2017-11-19T00:14:38.973Z,11.93
2017-11-19T00:17:05.565Z,11.43
2017-11-19T00:19:32.184Z,12.23
2017-11-19T00:21:58.807Z,11.77
2017-11-19T00:24:25.612Z,12.37
2017-11-19T00:26:52.251Z,11.13
2017-11-19T00:29:18.888Z,11.73
2017-11-19T00:31:45.506Z,12.30
2017-11-19T00:34:12.124Z,12.60
2017-11-19T00:36:38.732Z,11.93
2017-11-19T00:39:05.328Z,12.33
2017-11-19T00:41:31.976Z,12.60
2017-11-19T00:43:58.724Z,12.27
2017-11-19T00:46:25.442Z,12.20
2017-11-19T00:48:52.102Z,11.10
2017-11-19T00:51:18.748Z,12.47
2017-11-19T00:53:45.357Z,12.00
2017-11-19T00:56:11.986Z,12.60
2017-11-19T00:58:38.611Z,12.30
2017-11-19T01:01:07.063Z,11.57
2017-11-19T01:03:33.794Z,13.17
2017-11-19T01:06:02.811Z,12.20
2017-11-19T01:08:30.015Z,12.33
2017-11-19T01:10:56.606Z,14.67
2017-11-19T01:13:23.204Z,12.00
2017-11-19T01:15:50.133Z,11.90
2017-11-19T01:18:16.707Z,13.90
2017-11-19T01:20:43.396Z,13.10
2017-11-19T01:23:10.617Z,11.80
2017-11-19T01:25:37.235Z,11.80
2017-11-19T01:28:05.286Z,11.90
2017-11-19T01:30:31.908Z,11.20
2017-11-19T01:32:58.530Z,12.00
2017-11-19T01:35:25.116Z,11.30
2017-11-19T01:37:51.733Z,11.00
2017-11-19T01:40:18.327Z,12.20
2017-11-19T01:42:44.939Z,13.50
2017-11-19T01:45:11.569Z,11.93
2017-11-19T01:47:38.205Z,11.50
2017-11-19T01:50:04.837Z,12.50
2017-11-19T01:52:31.465Z,11.90
2017-11-19T01:54:58.048Z,11.03
2017-11-19T01:57:24.676Z,12.17
2017-11-19T01:59:51.290Z,10.97
2017-11-19T02:02:23.811Z,11.37
2017-11-19T02:04:50.407Z,10.83
2017-11-19T02:07:17.239Z,12.20
2017-11-19T02:09:43.826Z,11.57
2017-11-19T02:12:10.440Z,11.73
2017-11-19T02:14:37.058Z,11.80
2017-11-19T02:17:03.677Z,11.37
2017-11-19T02:19:30.307Z,10.63
2017-11-19T02:21:56.925Z,11.97
2017-11-19T02:24:23.537Z,11.23
2017-11-19T02:26:50.175Z,10.23
2017-11-19T02:29:16.761Z,10.00
2017-11-19T02:31:43.389Z,11.33
2017-11-19T02:34:09.986Z,11.37
2017-11-19T02:36:36.622Z,10.70
2017-11-19T02:39:03.244Z,10.83
2017-11-19T02:41:29.878Z,12.00
2017-11-19T02:43:56.469Z,11.53
2017-11-19T02:46:23.093Z,10.27
2017-11-19T02:48:49.674Z,11.67
2017-11-19T02:51:16.319Z,11.57
2017-11-19T02:53:42.967Z,10.50
2017-11-19T02:56:09.562Z,12.13
2017-11-19T02:58:36.161Z,10.67
2017-11-19T03:01:02.767Z,10.07
2017-11-19T03:03:29.381Z,10.27
2017-11-19T03:05:55.969Z,12.13
2017-11-19T03:08:22.602Z,11.20
2017-11-19T03:10:49.212Z,11.43
2017-11-19T03:13:15.811Z,11.17
2017-11-19T03:15:42.417Z,11.77
2017-11-19T03:18:09.051Z,11.90
2017-11-19T03:20:35.610Z,11.93
2017-11-19T03:23:02.235Z,12.23
2017-11-19T03:25:28.826Z,11.77
2017-11-19T03:27:55.403Z,12.40
2017-11-19T03:30:22.007Z,11.27
2017-11-19T03:32:48.606Z,11.93
2017-11-19T03:35:15.237Z,11.77
2017-11-19T03:37:41.822Z,11.00
2017-11-19T03:40:08.452Z,10.97
2017-11-19T03:42:35.093Z,10.63
2017-11-19T03:45:01.695Z,9.73
2017-11-19T03:47:28.294Z,10.20
2017-11-19T03:49:54.919Z,10.00
2017-11-19T03:52:21.587Z,10.83
2017-11-19T03:54:48.190Z,10.60
2017-11-19T03:57:14.802Z,11.17
2017-11-19T03:59:41.519Z,9.73
2017-11-19T04:02:08.146Z,10.40
2017-11-19T04:04:34.758Z,9.53
2017-11-19T04:07:01.374Z,9.20
2017-11-19T04:09:27.961Z,7.90
2017-11-19T04:11:54.551Z,7.30
2017-11-19T04:14:21.153Z,6.37
2017-11-19T04:16:47.741Z,4.37
2017-11-19T04:19:14.907Z,5.70
2017-11-19T04:21:41.480Z,4.90
2017-11-19T04:24:08.091Z,3.30
2017-11-19T04:26:34.675Z,3.67
2017-11-19T04:29:01.274Z,3.00
2017-11-19T04:31:27.862Z,3.03
2017-11-19T04:33:54.473Z,2.13
2017-11-19T04:36:21.086Z,2.13
2017-11-19T04:38:47.670Z,2.33
2017-11-19T04:41:14.298Z,2.30
2017-11-19T04:43:40.867Z,2.33
2017-11-19T04:46:07.478Z,2.07
2017-11-19T04:48:34.062Z,1.80
2017-11-19T04:51:00.677Z,2.07
2017-11-19T04:53:27.294Z,2.40
2017-11-19T04:55:53.909Z,1.90
2017-11-19T04:58:20.511Z,2.60
2017-11-19T05:00:47.089Z,2.50
2017-11-19T05:03:13.709Z,2.60
2017-11-19T05:05:40.311Z,2.47
2017-11-19T05:08:06.940Z,2.40
2017-11-19T05:10:33.542Z,2.40
2017-11-19T05:13:00.133Z,2.67
2017-11-19T05:15:26.719Z,2.20
2017-11-19T05:17:53.345Z,2.63
2017-11-19T05:20:19.942Z,2.60
2017-11-19T05:22:46.571Z,2.40
2017-11-19T05:25:13.156Z,2.60
2017-11-19T05:27:39.748Z,2.50
2017-11-19T05:30:06.351Z,2.37
2017-11-19T05:32:32.935Z,2.00
2017-11-19T05:34:59.537Z,2.40
2017-11-19T05:37:26.140Z,2.10
2017-11-19T05:39:52.789Z,1.80
2017-11-19T05:42:19.373Z,2.00
2017-11-19T05:44:45.955Z,2.47
2017-11-19T05:47:12.595Z,2.00
2017-11-19T05:49:39.256Z,1.80
2017-11-19T05:52:05.849Z,2.47
2017-11-19T05:54:32.450Z,2.17
2017-11-19T05:56:59.073Z,2.30
2017-11-19T05:59:25.683Z,2.73
2017-11-19T06:01:52.282Z,2.50
2017-11-19T06:04:18.869Z,2.60
2017-11-19T06:06:45.486Z,2.60
2017-11-19T06:09:12.060Z,2.10
2017-11-19T06:11:38.703Z,2.20
2017-11-19T06:14:05.293Z,2.30
2017-11-19T06:16:31.886Z,2.37
2017-11-19T06:18:58.489Z,1.97
2017-11-19T06:21:25.102Z,2.30
2017-11-19T06:23:51.714Z,2.30
2017-11-19T06:26:18.294Z,3.00
2017-11-19T06:28:44.948Z,3.37
2017-11-19T06:31:11.534Z,2.13
2017-11-19T06:33:38.171Z,2.10
2017-11-19T06:36:04.745Z,2.40
2017-11-19T06:38:31.345Z,1.73
2017-11-19T06:40:57.936Z,2.20
2017-11-19T06:43:24.554Z,1.97
2017-11-19T06:45:51.155Z,2.80
2017-11-19T06:48:17.760Z,3.23
2017-11-19T06:50:44.438Z,2.90
2017-11-19T06:53:11.047Z,3.40
2017-11-19T06:55:37.648Z,2.80
2017-11-19T06:58:04.228Z,3.47
2017-11-19T07:00:31.128Z,3.03
2017-11-19T07:02:57.726Z,3.97
2017-11-19T07:05:24.337Z,2.83
2017-11-19T07:07:50.993Z,3.90
2017-11-19T07:10:17.579Z,4.30
2017-11-19T07:12:44.195Z,2.93
2017-11-19T07:15:10.801Z,4.00
2017-11-19T07:17:37.397Z,3.20
2017-11-19T07:20:03.989Z,3.27
2017-11-19T07:22:30.613Z,4.50
2017-11-19T07:24:57.224Z,3.57
2017-11-19T07:27:23.843Z,3.77
2017-11-19T07:29:50.459Z,3.33
2017-11-19T07:32:17.066Z,3.27
2017-11-19T07:34:43.710Z,3.30
2017-11-19T07:37:10.330Z,3.80
2017-11-19T07:39:36.906Z,3.47
2017-11-19T07:42:03.519Z,2.90
2017-11-19T07:44:30.131Z,3.30
2017-11-19T07:46:56.735Z,3.60
2017-11-19T07:49:23.323Z,3.40
2017-11-19T07:51:49.926Z,4.00
2017-11-19T07:54:16.556Z,3.87
2017-11-19T07:56:43.149Z,3.47
2017-11-19T07:59:09.771Z,3.53
2017-11-19T08:01:36.352Z,3.13
2017-11-19T08:04:03.009Z,3.97
2017-11-19T08:06:29.602Z,4.93
2017-11-19T08:08:56.255Z,4.20
2017-11-19T08:11:22.826Z,4.60
2017-11-19T08:13:49.402Z,3.93
2017-11-19T08:16:16.009Z,3.90
2017-11-19T08:18:42.604Z,3.63
2017-11-19T08:21:09.219Z,3.70
2017-11-19T08:23:35.821Z,3.97
2017-11-19T08:26:02.640Z,3.77
2017-11-19T08:28:29.240Z,4.63
2017-11-19T08:30:55.858Z,4.80
2017-11-19T08:33:22.430Z,4.23
2017-11-19T08:35:49.108Z,4.20
2017-11-19T08:38:15.715Z,4.80
2017-11-19T08:40:43.036Z,4.37
2017-11-19T08:43:09.732Z,4.30
2017-11-19T08:45:36.351Z,4.53
2017-11-19T08:48:02.967Z,3.83
2017-11-19T08:50:29.579Z,3.70
2017-11-19T08:52:56.222Z,4.30
2017-11-19T08:55:22.867Z,3.80
2017-11-19T08:57:49.539Z,3.60
2017-11-19T09:00:16.177Z,3.27
2017-11-19T09:02:42.777Z,3.77
2017-11-19T09:05:09.784Z,3.70
2017-11-19T09:07:36.366Z,3.53
2017-11-19T09:10:03.016Z,4.00
2017-11-19T09:12:29.601Z,3.10
2017-11-19T09:14:56.220Z,3.50
2017-11-19T09:17:23.046Z,3.27
2017-11-19T09:19:49.653Z,3.93
2017-11-19T09:22:16.319Z,3.47
2017-11-19T09:24:42.942Z,3.60
2017-11-19T09:27:09.552Z,4.00
2017-11-19T09:29:36.325Z,3.00
2017-11-19T09:32:03.042Z,4.93
2017-11-19T09:34:29.674Z,3.37
2017-11-19T09:36:56.271Z,3.30
2017-11-19T09:39:22.937Z,3.03
2017-11-19T09:41:49.542Z,2.43
2017-11-19T09:44:16.437Z,2.83
2017-11-19T09:46:43.009Z,2.90
2017-11-19T09:49:09.822Z,2.53
2017-11-19T09:51:36.405Z,2.73
2017-11-19T09:54:03.013Z,2.30
2017-11-19T09:56:29.663Z,2.97
2017-11-19T09:58:56.264Z,2.20
2017-11-19T10:01:22.936Z,3.00
2017-11-19T10:03:49.543Z,2.40
2017-11-19T10:06:16.408Z,2.80
2017-11-19T10:08:43.029Z,2.30
2017-11-19T10:11:09.619Z,2.77
2017-11-19T10:13:36.283Z,2.33
2017-11-19T10:16:02.973Z,2.17
2017-11-19T10:18:29.612Z,2.43
2017-11-19T10:20:56.235Z,2.37
2017-11-19T10:23:22.940Z,1.60
2017-11-19T10:25:49.512Z,2.33
2017-11-19T10:28:16.135Z,2.00
2017-11-19T10:30:43.329Z,1.90
2017-11-19T10:33:09.949Z,1.60
2017-11-19T10:35:36.586Z,2.00
2017-11-19T10:38:04.692Z,2.00
2017-11-19T10:40:31.316Z,1.63
2017-11-19T10:42:57.953Z,1.77
2017-11-19T10:45:24.563Z,1.90
2017-11-19T10:47:51.183Z,2.00
2017-11-19T10:50:17.829Z,2.77
2017-11-19T10:52:44.440Z,1.87
2017-11-19T10:55:11.055Z,1.70
2017-11-19T10:57:37.650Z,2.03
2017-11-19T11:00:04.462Z,2.20
2017-11-19T11:02:31.099Z,2.50
2017-11-19T11:04:57.690Z,2.13
2017-11-19T11:07:24.308Z,1.50
2017-11-19T11:09:51.817Z,1.43
2017-11-19T11:12:18.451Z,2.07
2017-11-19T11:14:45.167Z,2.60
2017-11-19T11:17:11.780Z,2.17
2017-11-19T11:19:38.450Z,2.40
2017-11-19T11:22:05.071Z,1.90
2017-11-19T11:24:31.803Z,1.87
2017-11-19T11:26:58.449Z,2.60
2017-11-19T11:29:25.028Z,2.17
2017-11-19T11:31:51.649Z,1.50
2017-11-19T11:34:18.271Z,2.00
2017-11-19T11:36:45.159Z,2.00
2017-11-19T11:39:13.297Z,1.97
2017-11-19T11:41:39.978Z,2.40
2017-11-19T11:44:07.011Z,2.03
2017-11-19T11:46:33.643Z,1.90
2017-11-19T11:49:00.423Z,1.83
2017-11-19T12:00:04.741Z,1.80
2017-11-19T12:02:32.300Z,1.67
2017-11-19T12:04:59.206Z,2.17
2017-11-19T12:07:25.830Z,2.80
2017-11-19T12:09:52.479Z,1.93
2017-11-19T12:12:19.344Z,2.27
2017-11-19T12:14:45.934Z,2.20
2017-11-19T12:17:12.580Z,1.90
2017-11-19T12:19:39.208Z,1.70
2017-11-19T12:22:05.801Z,1.90
2017-11-19T12:24:32.410Z,2.03
2017-11-19T12:26:59.528Z,2.03
2017-11-19T12:29:26.370Z,2.00
2017-11-19T12:31:53.292Z,2.40
2017-11-19T12:34:19.919Z,1.80
2017-11-19T12:36:46.599Z,2.17
2017-11-19T12:39:13.212Z,2.30
2017-11-19T12:41:39.832Z,2.27
2017-11-19T12:44:06.514Z,2.63
2017-11-19T12:46:33.116Z,2.23
2017-11-19T12:48:59.825Z,2.70
2017-11-19T12:51:26.448Z,2.13
2017-11-19T12:53:53.106Z,2.60
2017-11-19T12:56:19.742Z,2.20
2017-11-19T12:58:46.365Z,2.37
2017-11-19T13:01:12.997Z,2.37
2017-11-19T13:03:39.648Z,2.27
2017-11-19T13:06:06.281Z,1.73
2017-11-19T13:08:32.934Z,2.27
2017-11-19T13:10:59.554Z,2.53
2017-11-19T13:13:26.171Z,2.43
2017-11-19T13:15:52.832Z,1.97
2017-11-19T13:18:19.651Z,1.63
2017-11-19T13:20:46.271Z,2.20
2017-11-19T13:23:12.883Z,2.23
2017-11-19T13:25:39.562Z,2.20
2017-11-19T13:28:06.204Z,2.30
2017-11-19T13:30:32.817Z,2.43
2017-11-19T13:32:59.429Z,2.33
2017-11-19T13:35:26.039Z,1.90
2017-11-19T13:37:52.772Z,2.37
2017-11-19T13:40:19.373Z,2.33
2017-11-19T13:42:46.012Z,2.63
2017-11-19T13:45:12.620Z,2.53
2017-11-19T13:47:39.225Z,2.50
2017-11-19T13:50:05.907Z,2.40
2017-11-19T13:52:32.660Z,2.73
2017-11-19T13:54:59.279Z,2.83
2017-11-19T13:57:25.966Z,5.97
2017-11-19T13:59:52.591Z,2.63
2017-11-19T14:02:19.245Z,2.87
2017-11-19T14:04:45.908Z,2.23
2017-11-19T14:07:12.478Z,2.30
2017-11-19T14:09:39.104Z,2.50
2017-11-19T14:12:05.698Z,2.47
2017-11-19T14:14:32.337Z,2.87
2017-11-19T14:16:58.944Z,3.00
2017-11-19T14:19:25.598Z,2.43
2017-11-19T14:21:52.206Z,2.73
2017-11-19T14:24:18.855Z,2.53
2017-11-19T14:26:45.474Z,2.63
2017-11-19T14:29:12.199Z,2.90
2017-11-19T14:31:39.151Z,2.40
2017-11-19T14:34:05.754Z,2.90
2017-11-19T14:36:32.363Z,2.40
2017-11-19T14:38:58.948Z,3.00
2017-11-19T14:41:25.583Z,2.17
2017-11-19T14:43:52.224Z,2.53
2017-11-19T14:46:18.935Z,2.67
2017-11-19T14:48:45.526Z,2.33
2017-11-19T14:51:12.173Z,2.50
2017-11-19T14:53:38.780Z,2.33
2017-11-19T14:56:05.441Z,1.80
2017-11-19T14:58:32.066Z,2.17
2017-11-19T15:00:58.683Z,3.00
2017-11-19T15:03:25.298Z,4.10
2017-11-19T15:05:51.912Z,2.83
2017-11-19T15:08:18.529Z,3.20
2017-11-19T15:10:45.138Z,2.60
2017-11-19T15:13:11.819Z,3.27
2017-11-19T15:15:38.452Z,3.33
2017-11-19T15:18:05.132Z,2.67
2017-11-19T15:20:31.758Z,3.10
2017-11-19T15:22:58.360Z,2.90
2017-11-19T15:25:25.000Z,2.87
2017-11-19T15:27:52.474Z,3.20
2017-11-19T15:30:19.103Z,2.90
2017-11-19T15:32:46.060Z,3.10
2017-11-19T15:35:12.692Z,3.03
2017-11-19T15:37:40.001Z,2.57
2017-11-19T15:40:06.725Z,2.77
2017-11-19T15:42:33.445Z,3.13
2017-11-19T15:45:00.114Z,2.77
2017-11-19T15:47:26.835Z,2.57
2017-11-19T15:49:53.430Z,3.60
2017-11-19T15:52:20.113Z,3.47
2017-11-19T15:54:46.712Z,2.60
2017-11-19T15:57:13.333Z,3.63
2017-11-19T15:59:40.038Z,2.93
2017-11-19T16:02:06.768Z,2.80
2017-11-19T16:04:33.369Z,2.93
2017-11-19T16:07:00.042Z,2.50
2017-11-19T16:09:26.758Z,2.83
2017-11-19T16:11:53.395Z,3.20
2017-11-19T16:14:20.144Z,3.20
2017-11-19T16:16:46.821Z,2.43
2017-11-19T16:19:13.450Z,2.50
2017-11-19T16:21:40.059Z,3.60
2017-11-19T16:24:06.792Z,3.30
2017-11-19T16:26:33.429Z,3.47
2017-11-19T16:29:00.075Z,3.43
2017-11-19T16:31:26.838Z,3.43
2017-11-19T16:33:53.702Z,4.07
2017-11-19T16:36:20.376Z,3.63
2017-11-19T16:38:47.209Z,3.30
2017-11-19T16:41:13.925Z,5.93
2017-11-19T16:43:40.533Z,3.70
2017-11-19T16:46:07.300Z,2.77
2017-11-19T16:48:34.029Z,3.47
2017-11-19T16:51:00.670Z,3.43
2017-11-19T16:53:27.830Z,3.10
2017-11-19T16:55:54.499Z,2.43
2017-11-19T16:58:21.214Z,3.90
2017-11-19T17:00:48.210Z,3.63
2017-11-19T17:03:15.714Z,3.92
2017-11-19T17:05:42.309Z,3.57
2017-11-19T17:08:08.923Z,3.40
2017-11-19T17:10:35.626Z,3.40
2017-11-19T17:13:02.312Z,3.30
2017-11-19T17:15:28.964Z,3.27
2017-11-19T17:17:55.605Z,3.87
2017-11-19T17:20:22.301Z,3.20
2017-11-19T17:22:48.883Z,3.03
2017-11-19T17:25:15.510Z,2.53
2017-11-19T17:27:42.209Z,2.63
2017-11-19T17:30:08.893Z,3.00
2017-11-19T17:32:36.378Z,3.80
2017-11-19T17:35:02.988Z,3.00
2017-11-19T17:37:29.670Z,3.87
2017-11-19T17:39:56.286Z,2.90
2017-11-19T17:42:23.084Z,3.23
2017-11-19T17:44:49.831Z,3.10
2017-11-19T17:47:16.467Z,3.20
2017-11-19T17:49:43.190Z,3.20
2017-11-19T17:52:10.736Z,2.67
2017-11-19T17:54:37.367Z,3.07
2017-11-19T17:57:04.058Z,3.00
2017-11-19T17:59:30.678Z,3.00
2017-11-19T18:01:57.385Z,3.13
2017-11-19T18:04:24.022Z,2.80
2017-11-19T18:06:50.779Z,3.13
2017-11-19T18:09:17.514Z,3.30
2017-11-19T18:11:44.177Z,2.93
2017-11-19T18:14:10.814Z,3.30
2017-11-19T18:16:37.498Z,3.40
2017-11-19T18:19:05.503Z,3.63
2017-11-19T18:21:32.216Z,3.77
2017-11-19T18:23:58.979Z,2.50
2017-11-19T18:26:25.683Z,3.07
2017-11-19T18:28:52.294Z,3.60
2017-11-19T18:31:19.000Z,3.57
2017-11-19T18:33:45.616Z,3.83
2017-11-19T18:36:12.350Z,3.57
2017-11-19T18:38:39.043Z,3.80
2017-11-19T18:41:05.876Z,3.50
2017-11-19T18:43:32.621Z,3.73
2017-11-19T18:45:59.271Z,3.90
2017-11-19T18:48:25.934Z,4.10
2017-11-19T18:50:52.598Z,3.93
2017-11-19T18:53:19.254Z,3.93
2017-11-19T18:55:46.540Z,3.93
2017-11-19T18:58:13.165Z,3.83
2017-11-19T19:00:39.843Z,3.50
2017-11-19T19:03:06.502Z,4.07
2017-11-19T19:05:33.285Z,3.93
2017-11-19T19:07:59.964Z,3.73
2017-11-19T19:10:26.571Z,4.00
2017-11-19T19:12:53.292Z,3.40
2017-11-19T19:15:20.020Z,4.17
2017-11-19T19:17:46.893Z,3.73
2017-11-19T19:20:13.699Z,3.53
2017-11-19T19:22:40.464Z,3.40
2017-11-19T19:25:07.180Z,3.03
2017-11-19T19:27:34.051Z,3.67
2017-11-19T19:30:00.698Z,2.80
2017-11-19T19:32:27.399Z,3.30
2017-11-19T19:34:54.413Z,3.17
2017-11-19T19:37:21.121Z,3.60
2017-11-19T19:39:47.961Z,4.10
2017-11-19T19:42:14.755Z,4.70
2017-11-19T19:44:41.424Z,3.40
2017-11-19T19:47:08.099Z,3.80
2017-11-19T19:49:34.803Z,4.80
2017-11-19T19:52:01.569Z,3.60
2017-11-19T19:54:28.343Z,3.97
2017-11-19T19:56:55.161Z,4.80
2017-11-19T19:59:21.864Z,4.30
2017-11-19T20:01:49.574Z,4.00
2017-11-19T20:04:16.185Z,4.07
2017-11-19T20:06:42.911Z,4.00
2017-11-19T20:09:09.646Z,4.10
2017-11-19T20:11:36.475Z,3.57
2017-11-19T20:14:03.113Z,3.20
2017-11-19T20:16:29.816Z,3.50
2017-11-19T20:18:56.533Z,3.70
2017-11-19T20:21:23.380Z,3.67
2017-11-19T20:23:50.189Z,3.30
2017-11-19T20:26:17.073Z,3.60
2017-11-19T20:28:43.725Z,3.30
2017-11-19T20:31:10.401Z,3.03
2017-11-19T20:33:37.039Z,3.10
2017-11-19T20:36:03.634Z,3.30
2017-11-19T20:38:30.278Z,3.20
2017-11-19T20:40:57.087Z,3.23
2017-11-19T20:43:23.794Z,3.97
2017-11-19T20:45:50.489Z,3.33
2017-11-19T20:48:17.195Z,3.37
2017-11-19T20:50:43.821Z,3.03
2017-11-19T20:53:10.571Z,3.40
2017-11-19T20:55:37.176Z,3.40
2017-11-19T20:58:03.980Z,3.80
2017-11-19T21:00:30.678Z,3.40
2017-11-19T21:02:57.597Z,3.30
2017-11-19T21:05:24.350Z,4.00
2017-11-19T21:07:50.977Z,4.03
2017-11-19T21:10:17.698Z,3.00
2017-11-19T21:12:44.308Z,3.40
2017-11-19T21:15:11.048Z,4.37
2017-11-19T21:17:37.673Z,4.20
2017-11-19T21:20:04.401Z,3.90
2017-11-19T21:22:31.094Z,3.70
2017-11-19T21:24:57.840Z,3.13
2017-11-19T21:27:24.587Z,4.10
2017-11-19T21:29:51.254Z,4.00
2017-11-19T21:32:18.005Z,4.07
2017-11-19T21:34:44.584Z,3.20
2017-11-19T21:37:11.361Z,3.20
2017-11-19T21:39:38.111Z,4.70
2017-11-19T21:42:04.794Z,3.50
2017-11-19T21:44:31.486Z,3.73
2017-11-19T21:46:59.996Z,3.97
2017-11-19T21:49:26.747Z,3.67
2017-11-19T21:51:53.358Z,3.50
2017-11-19T21:54:20.093Z,3.37
2017-11-19T21:56:46.810Z,3.47
2017-11-19T21:59:13.494Z,3.53
2017-11-19T22:01:40.101Z,3.50
2017-11-19T22:04:06.765Z,3.47
2017-11-19T22:06:33.441Z,3.50
2017-11-19T22:09:00.073Z,3.10
2017-11-19T22:11:26.720Z,3.50
2017-11-19T22:13:53.356Z,3.37
2017-11-19T22:16:19.966Z,3.10
2017-11-19T22:18:46.597Z,3.40
2017-11-19T22:21:13.179Z,3.93
2017-11-19T22:23:39.843Z,3.67
2017-11-19T22:26:06.451Z,3.17
2017-11-19T22:28:33.065Z,3.40
2017-11-19T22:30:59.700Z,3.67
2017-11-19T22:33:26.323Z,3.70
2017-11-19T22:35:52.987Z,3.60
2017-11-19T22:38:19.588Z,3.80
2017-11-19T22:40:46.194Z,3.63
2017-11-19T22:43:12.869Z,3.60
2017-11-19T22:45:39.483Z,3.77
2017-11-19T22:48:06.190Z,3.50
2017-11-19T22:50:32.883Z,4.20
2017-11-19T22:52:59.508Z,4.00
2017-11-19T22:55:26.157Z,4.20
2017-11-19T22:57:52.756Z,2.80
2017-11-19T23:00:19.344Z,3.60
2017-11-19T23:02:45.977Z,3.30
2017-11-19T23:05:12.638Z,2.90
2017-11-19T23:07:39.277Z,3.50
2017-11-19T23:10:05.884Z,3.30
2017-11-19T23:12:32.495Z,3.60
2017-11-19T23:14:59.152Z,3.70
2017-11-19T23:17:25.741Z,3.90
2017-11-19T23:19:52.361Z,3.50
2017-11-19T23:22:18.986Z,3.20
2017-11-19T23:24:45.565Z,3.70
2017-11-19T23:27:12.163Z,3.97
2017-11-19T23:29:38.783Z,3.90
2017-11-19T23:32:05.397Z,3.67
2017-11-19T23:34:32.028Z,3.87
2017-11-19T23:36:58.741Z,3.80
2017-11-19T23:39:25.360Z,3.53
2017-11-19T23:41:52.013Z,3.40
2017-11-19T23:44:18.676Z,4.13
2017-11-19T23:46:45.278Z,3.23
2017-11-19T23:49:11.921Z,3.20
2017-11-19T23:51:38.528Z,3.20
2017-11-19T23:54:05.121Z,3.53
2017-11-19T23:56:31.717Z,3.43
2017-11-19T23:58:58.297Z,3.47
